Time;durP1;ratioP1;P1;durP2;ratioP2;P2;SDS_P1;SDS_P2;PMS_P1;PMS_P2;Temp;Humidity;BMP_temperature;BMP_pressure;BME280_temperature;BME280_humidity;BME280_pressure;Samples;Min_cycle;Max_cycle;Signal;HPM_P1;HPM_P2
2023/03/27 00:00:52;;;;;;;24.27;3.87;;;;;;;-0.42;100.00;101214.00;10347678;28;20107;-75
2023/03/27 00:06:03;;;;;;;13.55;3.17;;;;;;;-0.48;100.00;101228.09;10366859;28;20099;-75
2023/03/27 00:11:04;;;;;;;10.30;4.60;;;;;;;-0.55;100.00;101235.97;10365383;28;20030;-74
2023/03/27 00:16:05;;;;;;;14.10;4.33;;;;;;;-0.51;100.00;101248.38;10395441;28;20038;-75
2023/03/27 00:21:05;;;;;;;15.52;3.70;;;;;;;-0.52;100.00;101254.25;10365934;28;20069;-75
2023/03/27 00:26:06;;;;;;;19.33;2.83;;;;;;;-0.69;100.00;101257.72;10396858;28;20046;-75
2023/03/27 00:31:10;;;;;;;9.17;3.27;;;;;;;-0.81;100.00;101269.38;10365278;28;20046;-74
2023/03/27 00:36:11;;;;;;;9.57;4.55;;;;;;;-0.94;100.00;101273.28;10363649;28;20413;-74
2023/03/27 00:41:11;;;;;;;10.50;3.73;;;;;;;-0.88;100.00;101288.41;10345687;28;20034;-74
2023/03/27 00:46:41;;;;;;;9.20;2.93;;;;;;;-0.93;100.00;101297.34;10365497;28;20033;-75
2023/03/27 00:51:42;;;;;;;11.80;3.33;;;;;;;-1.03;100.00;101295.47;10362912;28;20048;-75
2023/03/27 00:56:43;;;;;;;9.20;3.23;;;;;;;-1.09;100.00;101297.44;10361458;28;20034;-74
2023/03/27 01:01:44;;;;;;;11.70;3.88;;;;;;;-1.23;100.00;101303.75;10380487;28;20045;-75
2023/03/27 01:06:44;;;;;;;18.80;6.93;;;;;;;-1.20;100.00;101310.09;10377803;28;20050;-75
2023/03/27 01:12:14;;;;;;;8.87;3.83;;;;;;;-1.31;100.00;101318.38;10345859;28;20061;-75
2023/03/27 01:17:27;;;;;;;28.08;6.38;;;;;;;-1.36;100.00;101323.03;10366872;28;20045;-75
2023/03/27 01:23:13;;;;;;;14.38;4.15;;;;;;;-1.43;100.00;101330.88;10363882;28;20053;-74
2023/03/27 01:28:44;;;;;;;14.38;3.88;;;;;;;-1.53;100.00;101343.50;10361589;28;20089;-74
2023/03/27 01:33:51;;;;;;;11.97;4.57;;;;;;;-1.63;100.00;101341.63;10404142;28;20397;-74
2023/03/27 01:39:13;;;;;;;13.85;5.60;;;;;;;-1.73;100.00;101344.00;10362422;28;20043;-75
2023/03/27 01:44:16;;;;;;;10.93;3.97;;;;;;;-1.84;100.00;101353.16;10361582;28;22287;-75
2023/03/27 01:49:31;;;;;;;7.80;4.00;;;;;;;-1.92;100.00;101360.03;10346147;28;20054;-75
2023/03/27 01:54:34;;;;;;;9.10;3.25;;;;;;;-1.99;100.00;101366.19;10345531;28;20092;-74
2023/03/27 01:59:37;;;;;;;11.40;3.63;;;;;;;-1.97;100.00;101369.81;10359495;28;20121;-75
2023/03/27 02:04:42;;;;;;;11.48;4.70;;;;;;;-1.87;100.00;101368.22;10333009;28;20061;-74
2023/03/27 02:09:48;;;;;;;18.42;4.05;;;;;;;-1.84;100.00;101374.56;10344173;28;20041;-75
2023/03/27 02:15:10;;;;;;;12.57;3.10;;;;;;;-1.82;100.00;101383.34;10343728;28;20121;-74
2023/03/27 02:20:15;;;;;;;15.90;4.25;;;;;;;-1.88;100.00;101400.66;10359350;28;20196;-77
2023/03/27 02:25:28;;;;;;;7.32;4.13;;;;;;;-1.85;100.00;101389.81;10344188;28;20046;-75
2023/03/27 02:30:33;;;;;;;15.98;5.45;;;;;;;-1.88;100.00;101403.22;10359053;28;20046;-75
2023/03/27 02:35:49;;;;;;;12.93;3.50;;;;;;;-1.76;100.00;101416.44;10341758;28;20048;-74
2023/03/27 02:40:57;;;;;;;13.80;4.28;;;;;;;-1.41;100.00;101423.47;10361405;28;20140;-74
2023/03/27 02:46:19;;;;;;;12.80;3.95;;;;;;;-1.05;100.00;101426.38;10358017;28;20501;-75
2023/03/27 02:51:53;;;;;;;16.38;4.22;;;;;;;-0.81;100.00;101426.16;10359450;28;20049;-75
2023/03/27 02:56:55;;;;;;;13.23;4.60;;;;;;;-0.62;100.00;101431.53;10344462;28;20042;-74
2023/03/27 03:01:55;;;;;;;9.38;4.25;;;;;;;-0.43;100.00;101436.84;10383472;28;20481;-75
2023/03/27 03:06:56;;;;;;;19.03;4.30;;;;;;;-0.27;100.00;101440.97;10383415;28;20070;-75
2023/03/27 03:11:56;;;;;;;18.60;5.23;;;;;;;-0.16;100.00;101450.66;10334013;28;20034;-75
2023/03/27 03:16:57;;;;;;;11.88;4.30;;;;;;;0.00;100.00;101453.13;10350845;28;20120;-75
2023/03/27 03:21:57;;;;;;;12.07;2.92;;;;;;;0.17;100.00;101466.75;10342694;28;20038;-74
2023/03/27 03:26:58;;;;;;;6.78;3.42;;;;;;;0.35;100.00;101472.78;10359258;28;20121;-75
2023/03/27 03:31:59;;;;;;;9.98;4.38;;;;;;;0.56;100.00;101477.47;10358718;28;20038;-75
2023/03/27 03:36:59;;;;;;;7.85;2.28;;;;;;;0.75;100.00;101486.97;10359842;28;20449;-75
2023/03/27 03:42:00;;;;;;;5.80;3.03;;;;;;;0.90;100.00;101494.38;10342383;28;20496;-75
2023/03/27 03:47:00;;;;;;;9.65;3.13;;;;;;;1.20;100.00;101495.50;10357906;28;20084;-75
2023/03/27 03:52:01;;;;;;;7.13;2.55;;;;;;;1.12;100.00;101498.25;10360159;28;20124;-74
2023/03/27 03:57:02;;;;;;;5.07;2.08;;;;;;;0.74;100.00;101508.34;10366371;28;20564;-74
2023/03/27 04:02:02;;;;;;;8.13;4.20;;;;;;;0.34;100.00;101515.69;10348494;28;20088;-75
2023/03/27 04:07:04;;;;;;;9.43;3.20;;;;;;;0.10;100.00;101521.84;10362682;28;20124;-74
2023/03/27 04:12:05;;;;;;;8.13;2.35;;;;;;;-0.18;100.00;101526.78;10366281;28;20440;-75
2023/03/27 04:17:05;;;;;;;11.93;2.83;;;;;;;-0.44;100.00;101540.47;10380543;28;20041;-75
2023/03/27 04:22:06;;;;;;;8.68;3.15;;;;;;;-0.57;100.00;101555.41;10348628;28;20605;-76
2023/03/27 04:27:07;;;;;;;8.52;2.60;;;;;;;-0.71;100.00;101565.16;10364443;28;20161;-75
2023/03/27 04:32:10;;;;;;;19.47;4.73;;;;;;;-0.87;100.00;101567.81;10365106;28;20045;-74
2023/03/27 04:37:11;;;;;;;21.25;4.38;;;;;;;-0.83;100.00;101567.38;10353793;28;20054;-75
2023/03/27 04:42:15;;;;;;;9.93;3.73;;;;;;;-0.84;100.00;101569.78;10361745;28;20461;-74
2023/03/27 04:47:15;;;;;;;14.52;3.38;;;;;;;-0.89;100.00;101579.59;10361151;28;20096;-74
2023/03/27 04:52:16;;;;;;;9.33;3.07;;;;;;;-0.96;100.00;101583.16;10363520;28;20121;-75
2023/03/27 04:57:17;;;;;;;20.93;4.73;;;;;;;-1.00;100.00;101591.28;10363142;28;20520;-74
2023/03/27 05:02:18;;;;;;;5.53;3.37;;;;;;;-1.05;100.00;101598.53;10362211;28;20117;-75
2023/03/27 05:07:18;;;;;;;15.80;5.70;;;;;;;-0.91;100.00;101609.38;10356140;28;20471;-74
2023/03/27 05:12:20;;;;;;;15.55;4.60;;;;;;;-0.83;100.00;101612.72;10373990;28;20041;-75
2023/03/27 05:17:24;;;;;;;15.23;5.47;;;;;;;-0.81;100.00;101625.00;10361284;28;20516;-75
2023/03/27 05:22:25;;;;;;;10.90;4.47;;;;;;;-0.74;100.00;101629.13;10397753;28;20037;-74
2023/03/27 05:27:25;;;;;;;16.03;4.77;;;;;;;-0.67;100.00;101635.84;10371436;28;20396;-74
2023/03/27 05:32:26;;;;;;;19.55;5.85;;;;;;;-0.55;100.00;101646.47;10364266;28;20137;-74
2023/03/27 05:37:26;;;;;;;11.45;4.28;;;;;;;-0.54;100.00;101648.28;10360444;28;20046;-75
2023/03/27 05:42:27;;;;;;;20.83;6.43;;;;;;;-0.47;100.00;101664.53;10361534;28;20048;-74
2023/03/27 05:47:27;;;;;;;16.00;7.33;;;;;;;-0.33;100.00;101660.81;10355679;28;21032;-75
2023/03/27 05:52:28;;;;;;;15.00;5.95;;;;;;;-0.12;100.00;101670.63;10388280;28;20144;-75
2023/03/27 05:57:28;;;;;;;15.98;5.25;;;;;;;-0.08;100.00;101680.47;10355360;28;20117;-75
2023/03/27 06:02:28;;;;;;;12.25;4.28;;;;;;;-0.01;100.00;101678.69;10317672;28;20052;-74
2023/03/27 06:07:29;;;;;;;20.00;7.35;;;;;;;0.32;100.00;101687.16;10320750;28;20117;-75
2023/03/27 06:12:29;;;;;;;12.10;5.72;;;;;;;1.01;100.00;101702.56;10320421;28;20045;-75
2023/03/27 06:17:30;;;;;;;13.13;4.82;;;;;;;1.55;100.00;101714.69;10319237;28;20046;-74
2023/03/27 06:22:30;;;;;;;7.50;3.00;;;;;;;2.39;100.00;101708.03;10315035;28;20038;-74
2023/03/27 06:27:31;;;;;;;9.20;2.35;;;;;;;3.26;100.00;101710.81;10369655;28;20185;-76
2023/03/27 06:32:33;;;;;;;8.52;2.92;;;;;;;4.97;100.00;101686.63;10358609;28;20065;-74
2023/03/27 06:37:36;;;;;;;8.10;2.15;;;;;;;7.00;100.00;101678.28;10361893;28;20049;-74
2023/03/27 06:42:37;;;;;;;4.00;1.83;;;;;;;8.16;100.00;101689.25;10381929;28;20038;-75
2023/03/27 06:47:37;;;;;;;3.93;1.60;;;;;;;6.65;100.00;101708.63;10371336;28;20445;-75
2023/03/27 06:52:38;;;;;;;10.15;3.08;;;;;;;4.32;100.00;101715.75;10378034;28;20124;-74
2023/03/27 06:57:45;;;;;;;8.82;3.35;;;;;;;3.57;100.00;101726.50;10393084;28;20107;-74
2023/03/27 07:02:46;;;;;;;4.95;3.05;;;;;;;5.47;100.00;101727.91;10396490;28;20034;-74
2023/03/27 07:07:46;;;;;;;6.72;2.75;;;;;;;6.54;100.00;101736.41;10389968;28;20549;-74
2023/03/27 07:12:47;;;;;;;12.25;6.82;;;;;;;5.76;100.00;101744.97;10385672;28;20152;-74
2023/03/27 07:17:55;;;;;;;10.70;5.87;;;;;;;4.84;100.00;101760.81;10369030;28;20042;-75
2023/03/27 07:22:59;;;;;;;8.27;3.20;;;;;;;4.35;100.00;101757.47;10373332;28;20042;-76
2023/03/27 07:27:59;;;;;;;8.65;3.47;;;;;;;4.06;100.00;101765.31;10375932;28;20044;-75
2023/03/27 07:33:00;;;;;;;15.30;3.20;;;;;;;4.15;100.00;101770.38;10399895;28;20120;-75
2023/03/27 07:38:01;;;;;;;21.20;13.13;;;;;;;4.95;100.00;101772.09;10384221;28;20072;-75
2023/03/27 07:43:05;;;;;;;13.20;7.47;;;;;;;8.39;100.00;101763.00;10363576;28;20037;-75
2023/03/27 07:48:07;;;;;;;42.75;24.02;;;;;;;10.38;100.00;101778.78;10366765;28;20042;-75
2023/03/27 07:53:08;;;;;;;7.10;3.28;;;;;;;11.67;100.00;101769.06;10364292;28;20045;-75
2023/03/27 07:58:08;;;;;;;8.80;2.10;;;;;;;11.83;90.66;101781.34;10355211;28;20120;-75
2023/03/27 08:03:10;;;;;;;7.10;1.98;;;;;;;11.01;84.14;101784.41;10376774;28;20362;-75
2023/03/27 08:08:11;;;;;;;2.92;1.23;;;;;;;10.94;85.29;101798.88;10408177;28;20095;-76
2023/03/27 08:13:11;;;;;;;5.22;1.60;;;;;;;11.01;80.55;101793.19;10399291;28;20065;-75
2023/03/27 08:18:12;;;;;;;4.03;1.60;;;;;;;11.12;81.42;101808.66;10385716;28;20807;-76
2023/03/27 08:23:12;;;;;;;4.85;2.45;;;;;;;11.02;76.97;101799.31;10397972;28;20145;-76
2023/03/27 08:28:13;;;;;;;5.53;1.73;;;;;;;11.51;79.58;101813.56;10386537;28;20128;-75
2023/03/27 08:33:13;;;;;;;8.68;2.65;;;;;;;10.50;75.71;101813.63;10394044;28;20125;-76
2023/03/27 08:38:14;;;;;;;12.75;3.72;;;;;;;8.59;85.14;101827.06;10386265;28;20041;-75
2023/03/27 08:43:16;;;;;;;5.75;2.95;;;;;;;8.82;93.54;101825.19;10380653;28;20053;-76
2023/03/27 08:48:20;;;;;;;4.70;1.60;;;;;;;8.95;90.74;101824.31;10398573;28;20045;-76
2023/03/27 08:53:32;;;;;;;4.78;1.42;;;;;;;8.92;86.12;101829.31;10374836;28;20427;-75
2023/03/27 08:58:33;;;;;;;6.75;2.72;;;;;;;7.39;88.59;101843.50;10353384;28;20046;-76
2023/03/27 09:03:46;;;;;;;6.85;2.83;;;;;;;7.76;98.36;101840.16;10363566;28;20069;-75
2023/03/27 09:08:51;;;;;;;7.15;1.60;;;;;;;10.26;90.75;101846.94;10386077;28;20401;-75
2023/03/27 09:13:52;;;;;;;4.93;1.50;;;;;;;11.44;77.72;101851.63;10358064;28;20044;-76
2023/03/27 09:19:34;;;;;;;9.00;2.42;;;;;;;8.98;83.26;101861.09;10365673;28;20481;-75
2023/03/27 09:24:38;;;;;;;8.30;3.35;;;;;;;7.52;90.69;101855.75;10352438;28;20034;-75
2023/03/27 09:29:38;;;;;;;3.35;1.40;;;;;;;6.72;100.00;101859.19;10375081;28;20037;-75
2023/03/27 09:34:39;;;;;;;3.47;1.92;;;;;;;7.00;100.00;101863.09;10344135;28;20034;-74
2023/03/27 09:39:41;;;;;;;6.57;1.73;;;;;;;9.22;100.00;101854.06;10352217;28;20050;-72
2023/03/27 09:44:42;;;;;;;3.63;1.30;;;;;;;8.70;89.20;101873.91;10363291;28;20038;-74
2023/03/27 09:49:46;;;;;;;7.45;1.38;;;;;;;8.68;100.00;101865.06;10376850;28;20041;-74
2023/03/27 09:54:51;;;;;;;4.53;1.05;;;;;;;12.48;74.19;101869.00;10406297;28;20040;-74
2023/03/27 10:00:23;;;;;;;2.65;1.10;;;;;;;10.71;69.19;101879.53;10372850;28;20121;-74
2023/03/27 10:05:24;;;;;;;4.32;1.38;;;;;;;11.11;78.84;101869.72;10316903;28;20512;-76
2023/03/27 10:10:25;;;;;;;2.67;0.95;;;;;;;10.68;69.87;101878.41;10320255;28;20081;-78
2023/03/27 10:15:26;;;;;;;3.23;1.20;;;;;;;8.63;81.99;101890.81;10319207;28;20152;-77
2023/03/27 10:20:26;;;;;;;8.57;2.05;;;;;;;10.33;85.87;101891.03;10320449;28;20285;-78
2023/03/27 10:25:34;;;;;;;3.58;1.10;;;;;;;12.96;70.05;101877.66;10319258;28;20050;-75
2023/03/27 10:30:35;;;;;;;2.65;1.00;;;;;;;9.60;74.83;101899.28;10303533;28;20050;-76
2023/03/27 10:35:37;;;;;;;2.37;0.70;;;;;;;10.84;76.55;101894.28;10333893;28;20092;-76
2023/03/27 10:40:38;;;;;;;1.55;0.70;;;;;;;13.61;59.46;101883.72;10317538;28;20439;-76
2023/03/27 10:45:52;;;;;;;8.35;1.30;;;;;;;9.73;70.87;101910.56;10333191;28;20038;-78
2023/03/27 10:50:53;;;;;;;3.15;1.00;;;;;;;7.16;92.15;101932.84;10363645;28;20053;-77
2023/03/27 10:56:09;;;;;;;1.98;1.27;;;;;;;8.10;100.00;101931.31;10358021;28;20044;-77
2023/03/27 11:01:27;;;;;;;4.05;0.70;;;;;;;12.50;83.78;101918.06;10361571;28;20049;-77
2023/03/27 11:06:31;;;;;;;2.95;1.40;;;;;;;12.88;75.49;101921.94;10349901;28;20034;-76
2023/03/27 11:11:50;;;;;;;2.88;1.35;;;;;;;13.60;66.91;101930.19;10399046;28;20042;-77
2023/03/27 11:16:55;;;;;;;2.00;0.90;;;;;;;14.15;58.32;101927.66;10351682;28;20045;-77
2023/03/27 11:21:58;;;;;;;9.23;1.83;;;;;;;14.12;60.80;101933.69;10360803;28;20046;-77
2023/03/27 11:27:04;;;;;;;3.92;1.20;;;;;;;13.77;60.80;101930.16;10392421;28;20054;-76
2023/03/27 11:32:12;;;;;;;2.47;0.73;;;;;;;13.76;58.85;101930.97;10349025;28;20417;-77
2023/03/27 11:37:21;;;;;;;6.68;0.88;;;;;;;13.57;63.02;101942.25;10381422;28;20057;-77
2023/03/27 11:42:24;;;;;;;3.75;0.90;;;;;;;14.88;55.73;101950.53;10383374;28;20046;-77
2023/03/27 11:47:45;;;;;;;2.08;1.27;;;;;;;14.34;53.59;101946.16;10365318;28;20042;-77
2023/03/27 11:52:51;;;;;;;2.90;0.85;;;;;;;10.89;65.80;101961.75;10357180;28;20042;-77
2023/03/27 11:58:10;;;;;;;2.42;0.90;;;;;;;10.43;69.59;101976.28;10395486;28;20390;-77
2023/03/27 12:03:28;;;;;;;3.08;1.10;;;;;;;11.71;69.84;101999.19;10354224;28;20112;-77
2023/03/27 12:08:51;;;;;;;4.60;1.20;;;;;;;7.35;100.00;102023.78;10362224;28;20042;-81
2023/03/27 12:14:07;;;;;;;3.42;0.80;;;;;;;5.42;100.00;102045.97;10420681;28;20045;-75
2023/03/27 12:19:32;;;;;;;12.93;1.60;;;;;;;4.41;100.00;102037.97;10364366;28;20041;-74
2023/03/27 12:24:55;;;;;;;7.55;1.25;;;;;;;3.97;100.00;102043.50;10352314;28;20108;-77
2023/03/27 12:30:26;;;;;;;1.52;0.50;;;;;;;4.50;100.00;102027.56;10374148;28;20038;-76
2023/03/27 12:35:31;;;;;;;4.40;0.70;;;;;;;7.31;100.00;102016.50;10362096;28;20092;-76
2023/03/27 12:40:37;;;;;;;6.32;1.65;;;;;;;10.24;100.00;102008.16;10371010;28;20152;-76
2023/03/27 12:45:38;;;;;;;2.08;1.08;;;;;;;12.47;90.76;102010.69;10405523;28;20038;-77
2023/03/27 12:50:50;;;;;;;6.15;1.00;;;;;;;13.34;67.11;102000.66;10344040;28;20046;-76
2023/03/27 12:56:16;;;;;;;2.45;0.70;;;;;;;13.42;67.29;101985.31;10339725;28;20120;-76
2023/03/27 13:01:28;;;;;;;2.85;0.82;;;;;;;14.12;63.66;101985.41;10358017;28;20116;-77
2023/03/27 13:06:33;;;;;;;8.20;1.40;;;;;;;14.39;63.38;101989.44;10371949;28;20038;-77
2023/03/27 13:12:01;;;;;;;3.75;1.00;;;;;;;15.50;59.98;101978.84;10359575;28;20050;-77
2023/03/27 13:17:28;;;;;;;6.35;1.15;;;;;;;13.59;62.33;101990.59;10361409;28;20141;-74
2023/03/27 13:22:56;;;;;;;2.15;1.20;;;;;;;10.82;67.98;101992.78;10435454;28;20045;-76
2023/03/27 13:28:18;;;;;;;4.13;1.05;;;;;;;9.69;73.84;101985.28;10402845;28;20480;-76
2023/03/27 13:33:28;;;;;;;;;;;;;;;11.45;64.48;101980.16;10382767;28;20049;-76
2023/03/27 13:38:56;;;;;;;2.70;1.02;;;;;;;12.39;61.12;101993.56;10359889;28;20380;-76
2023/03/27 13:43:56;;;;;;;3.30;0.77;;;;;;;11.28;58.68;101999.16;10434133;28;20025;-76
2023/03/27 13:48:58;;;;;;;2.15;0.45;;;;;;;9.22;59.21;102010.81;10418515;28;20536;-76
2023/03/27 13:54:29;;;;;;;1.77;0.80;;;;;;;7.82;64.14;102012.63;10386126;28;20090;-75
2023/03/27 13:59:50;;;;;;;4.43;1.00;;;;;;;7.47;67.88;102013.41;10403165;28;20052;-75
2023/03/27 14:05:12;;;;;;;3.22;1.10;;;;;;;9.14;66.68;102014.56;10434306;28;20045;-76
2023/03/27 14:10:17;;;;;;;2.20;1.38;;;;;;;11.76;60.42;101991.63;10403016;28;20436;-76
2023/03/27 14:15:36;;;;;;;3.75;0.82;;;;;;;9.67;65.60;102005.19;10417749;28;20046;-76
2023/03/27 14:20:44;;;;;;;5.43;1.20;;;;;;;8.67;75.58;102025.97;10360734;28;20401;-75
2023/03/27 14:25:48;;;;;;;2.42;1.00;;;;;;;6.74;99.50;102031.94;10358834;28;20034;-75
2023/03/27 14:30:49;;;;;;;4.78;2.05;;;;;;;6.18;100.00;102031.69;10343614;28;20501;-76
2023/03/27 14:35:54;;;;;;;3.85;0.98;;;;;;;8.36;100.00;102034.06;10359014;28;20124;-75
2023/03/27 14:40:59;;;;;;;2.58;0.70;;;;;;;10.64;73.94;102025.63;10359799;28;20088;-74
2023/03/27 14:46:04;;;;;;;5.50;2.60;;;;;;;11.97;74.38;102036.59;10358321;28;20046;-76
2023/03/27 14:51:08;;;;;;;4.65;1.00;;;;;;;12.44;64.19;102031.50;10359287;28;20095;-75
2023/03/27 14:56:36;;;;;;;3.70;0.80;;;;;;;11.45;69.19;102047.41;10334327;28;20375;-76
2023/03/27 15:01:37;;;;;;;3.72;1.13;;;;;;;7.60;100.00;102073.50;10353489;28;20041;-75
2023/03/27 15:06:38;;;;;;;10.95;2.72;;;;;;;6.43;100.00;102063.22;10341279;28;20038;-75
2023/03/27 15:11:39;;;;;;;4.43;1.58;;;;;;;5.90;100.00;102065.69;10340570;28;20045;-75
2023/03/27 15:16:40;;;;;;;6.68;1.95;;;;;;;5.64;100.00;102069.53;10390161;28;20060;-74
2023/03/27 15:21:54;;;;;;;10.60;2.53;;;;;;;7.04;100.00;102070.78;10389912;28;20056;-75
2023/03/27 15:26:55;;;;;;;8.18;3.13;;;;;;;8.32;100.00;102076.38;10371759;28;20046;-74
2023/03/27 15:31:55;;;;;;;4.38;1.38;;;;;;;9.18;98.65;102076.69;10299372;28;20034;-74
2023/03/27 15:36:57;;;;;;;9.10;1.98;;;;;;;8.99;89.02;102087.47;10341514;28;20113;-74
2023/03/27 15:42:17;;;;;;;6.43;2.38;;;;;;;7.90;98.82;102094.94;10355099;28;20045;-74
2023/03/27 15:47:23;;;;;;;6.47;1.65;;;;;;;6.51;100.00;102099.38;10356583;28;20053;-74
2023/03/27 15:52:30;;;;;;;2.22;1.23;;;;;;;5.39;100.00;102121.00;10360745;28;20462;-74
2023/03/27 15:57:31;;;;;;;8.45;2.55;;;;;;;5.23;100.00;102137.81;10363961;28;20030;-76
2023/03/27 16:02:31;;;;;;;4.00;1.30;;;;;;;4.88;100.00;102140.72;10365146;28;20489;-75
2023/03/27 16:07:43;;;;;;;8.70;4.40;;;;;;;4.78;100.00;102140.66;10347736;28;20516;-75
2023/03/27 16:12:46;;;;;;;11.18;4.15;;;;;;;5.24;100.00;102143.94;10341264;28;20041;-75
2023/03/27 16:17:48;;;;;;;4.53;1.77;;;;;;;5.28;100.00;102149.50;10363974;28;20092;-75
2023/03/27 16:22:48;;;;;;;5.23;2.10;;;;;;;5.10;100.00;102142.66;10348690;28;20026;-75
2023/03/27 16:27:51;;;;;;;5.20;1.92;;;;;;;5.06;100.00;102143.16;10360320;28;20042;-75
2023/03/27 16:32:52;;;;;;;4.65;2.15;;;;;;;5.24;100.00;102160.41;10362723;28;20682;-76
2023/03/27 16:37:53;;;;;;;4.22;1.27;;;;;;;5.12;100.00;102161.88;10361183;28;20061;-76
2023/03/27 16:42:53;;;;;;;8.32;4.07;;;;;;;5.04;100.00;102160.28;10363849;28;20048;-75
2023/03/27 16:47:54;;;;;;;21.52;8.77;;;;;;;4.92;100.00;102160.97;10362124;28;20032;-75
2023/03/27 16:52:55;;;;;;;6.07;2.05;;;;;;;4.78;100.00;102170.13;10364097;28;20142;-74
2023/03/27 16:57:55;;;;;;;4.32;1.00;;;;;;;4.68;100.00;102181.31;10363467;28;20124;-76
2023/03/27 17:02:56;;;;;;;2.70;1.30;;;;;;;4.52;100.00;102180.66;10364124;28;20065;-75
2023/03/27 17:07:56;;;;;;;4.63;1.88;;;;;;;4.17;100.00;102183.44;10361073;28;20149;-76
2023/03/27 17:12:57;;;;;;;4.43;2.53;;;;;;;3.72;100.00;102186.97;10362720;28;20446;-74
2023/03/27 17:17:57;;;;;;;3.55;1.70;;;;;;;3.26;100.00;102184.31;10363312;28;20085;-75
2023/03/27 17:22:58;;;;;;;7.18;3.20;;;;;;;2.80;100.00;102193.59;10363176;28;20476;-74
2023/03/27 17:27:58;;;;;;;5.72;2.67;;;;;;;2.36;100.00;102206.44;10362941;28;20061;-74
2023/03/27 17:32:59;;;;;;;11.65;5.60;;;;;;;2.07;100.00;102208.59;10363137;28;20076;-74
2023/03/27 17:37:59;;;;;;;8.13;2.35;;;;;;;1.95;100.00;102208.25;10344803;28;20038;-74
2023/03/27 17:43:00;;;;;;;8.25;1.77;;;;;;;1.85;100.00;102209.88;10361287;28;20048;-74
2023/03/27 17:48:00;;;;;;;5.30;2.10;;;;;;;1.87;100.00;102212.59;10376797;28;20064;-74
2023/03/27 17:53:01;;;;;;;4.90;2.40;;;;;;;1.81;100.00;102211.94;10363031;28;20057;-74
2023/03/27 17:58:01;;;;;;;13.55;4.60;;;;;;;1.82;100.00;102226.69;10360520;28;20033;-74
2023/03/27 18:03:02;;;;;;;5.28;2.42;;;;;;;1.78;100.00;102227.13;10362149;28;20132;-74
2023/03/27 18:08:03;;;;;;;5.20;2.10;;;;;;;1.82;100.00;102237.94;10360308;28;20030;-74
2023/03/27 18:13:03;;;;;;;8.73;2.35;;;;;;;1.85;100.00;102246.00;10343454;28;20130;-74
2023/03/27 18:18:04;;;;;;;5.40;2.40;;;;;;;1.70;100.00;102252.16;10359454;28;20444;-74
2023/03/27 18:23:05;;;;;;;7.68;2.53;;;;;;;1.60;100.00;102270.88;10392463;28;20038;-75
2023/03/27 18:28:05;;;;;;;5.55;2.28;;;;;;;1.59;100.00;102277.72;10376536;28;20042;-75
2023/03/27 18:33:06;;;;;;;14.30;2.40;;;;;;;1.88;100.00;102278.97;10359774;28;20153;-75
2023/03/27 18:38:07;;;;;;;4.95;2.65;;;;;;;2.18;100.00;102280.34;10393333;28;20146;-74
2023/03/27 18:43:07;;;;;;;9.13;3.47;;;;;;;2.18;100.00;102281.28;10361307;28;20113;-74
2023/03/27 18:48:08;;;;;;;6.20;2.13;;;;;;;2.14;100.00;102286.88;10359233;28;20490;-74
2023/03/27 18:53:08;;;;;;;8.30;1.85;;;;;;;2.00;100.00;102293.16;10358430;28;20034;-74
2023/03/27 18:58:09;;;;;;;6.55;2.20;;;;;;;1.91;100.00;102305.13;10342391;28;20172;-74
2023/03/27 19:03:16;;;;;;;4.50;2.05;;;;;;;1.81;100.00;102307.47;10360883;28;20053;-74
2023/03/27 19:08:18;;;;;;;6.22;1.80;;;;;;;1.70;100.00;102308.94;10376367;28;20046;-74
2023/03/27 19:13:18;;;;;;;2.97;1.60;;;;;;;1.57;100.00;102310.19;10432052;28;20037;-74
2023/03/27 19:18:19;;;;;;;4.63;1.60;;;;;;;1.40;100.00;102312.63;10432692;28;20121;-74
2023/03/27 19:23:20;;;;;;;5.03;1.50;;;;;;;1.31;100.00;102321.22;10404462;28;20037;-74
2023/03/27 19:28:21;;;;;;;5.70;2.47;;;;;;;1.08;100.00;102318.69;10407228;28;20042;-74
2023/03/27 19:33:21;;;;;;;10.32;2.65;;;;;;;1.00;100.00;102330.78;10406656;28;20045;-74
2023/03/27 19:38:22;;;;;;;11.48;4.60;;;;;;;0.88;100.00;102334.56;10391729;28;20040;-75
2023/03/27 19:43:22;;;;;;;14.52;8.63;;;;;;;0.75;100.00;102329.72;10422084;28;20040;-74
2023/03/27 19:48:23;;;;;;;10.18;4.75;;;;;;;0.55;100.00;102338.72;10438709;28;20432;-74
2023/03/27 19:53:24;;;;;;;5.47;2.25;;;;;;;0.51;100.00;102331.41;10407667;28;20036;-74
2023/03/27 19:58:25;;;;;;;12.48;2.95;;;;;;;0.48;100.00;102338.78;10406083;28;20179;-74
2023/03/27 20:03:27;;;;;;;5.10;1.73;;;;;;;0.35;100.00;102341.66;10373913;28;20091;-74
2023/03/27 20:08:29;;;;;;;8.00;2.47;;;;;;;0.03;100.00;102341.50;10407507;28;20265;-74
2023/03/27 20:13:30;;;;;;;9.68;2.88;;;;;;;-0.04;100.00;102337.31;10405752;28;20034;-74
2023/03/27 20:18:33;;;;;;;12.20;3.20;;;;;;;-0.17;100.00;102334.06;10438040;28;20131;-74
2023/03/27 20:23:36;;;;;;;8.15;2.40;;;;;;;-0.20;100.00;102347.53;10407024;28;20120;-74
2023/03/27 20:28:37;;;;;;;7.30;3.38;;;;;;;-0.22;100.00;102350.66;10406451;28;20460;-74
2023/03/27 20:33:37;;;;;;;12.05;4.07;;;;;;;-0.41;100.00;102343.38;10379920;28;20040;-74
2023/03/27 20:38:38;;;;;;;6.47;2.75;;;;;;;-0.51;100.00;102350.78;10362038;28;20045;-74
2023/03/27 20:43:40;;;;;;;8.07;1.98;;;;;;;-0.64;100.00;102351.91;10361998;28;20077;-74
2023/03/27 20:48:40;;;;;;;;;;;;;;;-0.81;100.00;102357.69;10364664;28;20494;-74
2023/03/27 20:53:41;;;;;;;11.65;2.72;;;;;;;-0.95;100.00;102361.19;10364321;28;19926;-74
2023/03/27 20:58:43;;;;;;;5.90;2.17;;;;;;;-1.04;100.00;102360.09;10345308;28;20034;-74
2023/03/27 21:03:45;;;;;;;18.48;4.53;;;;;;;-1.12;100.00;102363.41;10362567;28;20092;-74
2023/03/27 21:08:45;;;;;;;3.80;2.72;;;;;;;-1.25;100.00;102368.75;10346315;28;20049;-74
2023/03/27 21:13:46;;;;;;;6.68;3.45;;;;;;;-1.38;100.00;102363.78;10319243;28;20041;-74
2023/03/27 21:18:46;;;;;;;10.57;3.95;;;;;;;-1.59;100.00;102375.88;10362403;28;20511;-74
2023/03/27 21:23:47;;;;;;;15.77;3.63;;;;;;;-1.71;100.00;102379.53;10388424;28;20130;-74
2023/03/27 21:28:51;;;;;;;8.03;3.33;;;;;;;-1.73;100.00;102392.22;10335596;28;20454;-75
2023/03/27 21:33:52;;;;;;;9.30;3.20;;;;;;;-1.75;100.00;102395.31;10356657;28;20042;-74
2023/03/27 21:38:52;;;;;;;7.37;3.50;;;;;;;-1.85;100.00;102395.84;10335332;28;20049;-74
2023/03/27 21:43:53;;;;;;;5.20;2.47;;;;;;;-1.96;100.00;102399.66;10341150;28;20121;-74
2023/03/27 21:48:53;;;;;;;9.93;4.77;;;;;;;-2.00;100.00;102400.00;10337150;28;20042;-73
2023/03/27 21:53:54;;;;;;;9.80;4.53;;;;;;;-2.07;100.00;102406.06;10340248;28;20041;-74
2023/03/27 21:58:56;;;;;;;7.13;3.50;;;;;;;-2.18;100.00;102411.50;10334928;28;20145;-74
2023/03/27 22:04:00;;;;;;;;;;;;;;;-2.19;100.00;102415.69;10332406;28;20041;-74
2023/03/27 22:09:01;;;;;;;11.75;4.03;;;;;;;-2.22;100.00;102417.88;10335087;28;19922;-74
2023/03/27 22:14:01;;;;;;;9.97;3.80;;;;;;;-2.30;100.00;102409.25;10321703;28;20030;-74
2023/03/27 22:19:02;;;;;;;8.57;2.70;;;;;;;-2.32;100.00;102414.91;10317275;28;20045;-74
2023/03/27 22:24:02;;;;;;;11.20;4.30;;;;;;;-2.44;100.00;102422.00;10336814;28;20474;-74
2023/03/27 22:29:04;;;;;;;9.00;3.90;;;;;;;-2.47;100.00;102424.19;10314719;28;20038;-74
2023/03/27 22:34:04;;;;;;;13.60;4.63;;;;;;;-2.53;100.00;102425.25;10321316;28;20101;-74
2023/03/27 22:39:05;;;;;;;14.43;4.40;;;;;;;-2.62;100.00;102434.38;10359505;28;20120;-74
2023/03/27 22:44:05;;;;;;;8.27;4.03;;;;;;;-2.67;100.00;102438.91;10333692;28;20058;-74
2023/03/27 22:49:06;;;;;;;9.23;3.00;;;;;;;-2.68;100.00;102447.31;10334448;28;20033;-74
2023/03/27 22:54:07;;;;;;;10.77;3.87;;;;;;;-2.74;100.00;102454.22;10359234;28;20040;-75
2023/03/27 22:59:07;;;;;;;10.07;3.80;;;;;;;-2.82;100.00;102450.72;10339138;28;20172;-74
2023/03/27 23:04:08;;;;;;;9.43;3.70;;;;;;;-2.92;100.00;102454.47;10325784;28;20090;-74
2023/03/27 23:09:08;;;;;;;9.47;3.73;;;;;;;-3.00;100.00;102461.19;10333269;28;20124;-74
2023/03/27 23:14:09;;;;;;;12.67;4.97;;;;;;;-2.96;100.00;102461.75;10309447;28;20126;-75